East Corinth, ME

2:22 PM EST on March 02, 2015 (GMT -0500)
Millinocket Municipal | Change Station
CLOSE
Current Station
Airport
Location: Millinocket,
Elevation: 407 ft
Nearby Weather Stations

Elev 407 ft 45.65 °N, 68.69 °W | Updated 29 minutes ago

Mostly Cloudy
Mostly Cloudy
28 °F
Feels Like 15 °F
N
18
Wind Variable Wind from WNW
Gusts 26 mph

Today
High -- | Low -- °F
--% Chance of Precip.
Yesterday
High -- | Low -- °F
Precip. -- in
6:12 AM 5:24 PM
Waxing Gibbous, 92% visible
Pressure 29.76 in
Visibility 9.0 miles
Clouds Mostly Cloudy 4200 ft
Overcast 5000 ft
Windchill 15 °F
Dew Point 13 °F
Humidity 53%
Rainfall 0.02 in
Snow Depth Not available.
UV 1 out of 12
Pollen .30 out of 12
Air Quality Not available.
Flu Activity Not available.
METAR KMLT 021853Z AUTO 30016G23KT 9SM BKN042 OVC050 M02/M11 A2973 RMK AO2 PK WND 31033/1829 UPB04E12B33E44SNE04B24E33 SLP078 P0001 T10221106

More Conditions Fewer Conditions

Pressure 29.76 in
Visibility 9.0 miles
Clouds Mostly Cloudy 4200 ft
Overcast 5000 ft
Windchill 15 °F
Dew Point 13 °F
Humidity 53%
Rainfall 0.02 in
Snow Depth Not available.
UV 1 out of 12
Pollen .30 out of 12
Air Quality Not available.
Flu Activity Not available.
METAR KMLT 021853Z AUTO 30016G23KT 9SM BKN042 OVC050 M02/M11 A2973 RMK AO2 PK WND 31033/1829 UPB04E12B33E44SNE04B24E33 SLP078 P0001 T10221106

More Conditions Fewer Conditions

10-Day Weather Forecast

Almanac

Astronomy

Mar. 02, 2015 Rise Set
Actual Time
Civil Twilight
Nautical Twilight
Astronomical Twilight
Moon
Length of Visible Light
Length of Day
Tomorrow will be .
, % of the Moon is Illuminated

Today's Extremes

State Highs State Lows

Community

WunderPhotos

Upload Photos

1,801,915 photos uploaded!

WunderBlogs® & News

Nearby

Air Quality

  Air Quality AQ Index Pollutant
Not available.

Snow Depth

Station Depth Elevation

Earthquake Activity

City Distance Mag. Time & Date
Minimum magnitude displayed is 2.5.

Coastal Water Temperatures

Place Temperature

Nearby Weather Stations